Terminal Aerodrome Forecast
Issued by NWS Wilmington, OH

Current Version | Previous Version | Text Only | Print | Product List | Glossary Off
Versions: 1 2 3 4 5 6 7 8 9 10 11 12 13 14 15 16 17 18 19 20 21 22 23 24 25

000
FTUS41 KILN 302300
TAFILN
TAF
KILN 302334Z 3100/3124 20008KT P6SM SCT060
     FM310500 17008KT P6SM SCT025 BKN100
     FM311300 21012KT P6SM VCSH OVC015
     FM312100 27012KT P6SM BKN025=

USA.gov is the U.S. government's official web portal to all federal, state and local government web resources and services.